Chris Hadfield Airport
CYZR : now visible

Airfield :











YOU CAN JOIN US ON...

 
LOGIN :

Register | Disclaimer

   EN    FR    IT 

 









Legend :    VFR   Marginal VFR   IFR   Intensive IFR   Very Intensive IFR
Visi :
Ceiling :
>= 8 km
>= 3000ft
5 to 8 km
1000 to 3000 ft
1500m to 5 km
500 to 1000 ft
800 to 1500m
200 to 500 ft
< 800m
< 200 ft
Symbols :   Thunderstorms  Fog  Heavy snow  Heavy precipitations  Wind > 20 kt






- Airport Elevation : 594 ft
- IATA code : YZR


CYZR - Chris Hadfield

CURRENT METAR :
  • 142100Z AUTO 31009KT 6SM HZ OVC048 03/00 A2954 RMK RVR MISG SLP009

EXPIRED METARs :
  • 142000Z AUTO 31010KT 6SM BR OVC050 03/01 A2953 RMK RVR MISG SLP008
  • 141956Z AUTO 31008KT 6SM BR OVC050 03/00 A2954 RMK RVR MISG SLP009
  • 141943Z AUTO 31010G15KT 7SM -RA BKN050 OVC055 03/00 A2953 RMK RVR MISG SLP007
  • 141925Z AUTO 30009G15KT 7SM SCT013 BKN045 OVC050 03/00 A2953 RMK RVR MISG SLP006
  • 141900Z AUTO 30008KT 7SM BKN013 OVC060 03/01 A2952 RMK RVR MISG SLP004
  • 141843Z AUTO 30010KT 6SM BR BKN013 BKN042 BKN050 OVC060 03/01 A2951 RMK RVR MISG SLP001

TAF TAF CYZR
Valid from the 14 at 20:00 until the 15 at 03:00 UTC


141954Z 1420/1503 33010KT P6SM BKN012 OVC030
TEMPO 1420/1424 SCT012
FM150000 30012G22KT P6SM BKN012
TEMPO 1500/1503 5SM -SHSN OVC008 RMK FCST BASED ON AUTO OBS. NXT FCST WILL BE ISSUED AT 150845Z



MET'MAP, your aeronautical weather chart ! - Copyright ORBIFLY December 2007 - Disclaimer

ORBIFLY MET'MAP TEAM :

Programming & Development : Alexandra Zaïnal
Concept & original design : Baudouin d'Aumeries
Assistance for programming : Marc-Olivier Méhu
Technical & hardware support : Manuel Goepfert

Contact : metmap@orbifly.com




SOURCES & CREDITS :

   NOAA       Earth
Advisory